Time;durP1;ratioP1;P1;durP2;ratioP2;P2;SDS_P1;SDS_P2;PMS_P1;PMS_P2;Temp;Humidity;BMP_temperature;BMP_pressure;BME280_temperature;BME280_humidity;BME280_pressure;Samples;Min_cycle;Max_cycle;Signal;HPM_P1;HPM_P2
2022/07/16 00:02:57;;;;;;;6.22;1.10;;;;;;;;;;4973601;28;20061;-63
2022/07/16 00:05:23;;;;;;;3.22;1.17;;;;;;;;;;4970273;28;20049;-63
2022/07/16 00:07:50;;;;;;;3.88;1.10;;;;;;;;;;4990036;28;20034;-65
2022/07/16 00:10:17;;;;;;;5.90;1.30;;;;;;;;;;4980250;28;20039;-64
2022/07/16 00:12:43;;;;;;;6.50;1.00;;;;;;;;;;4971373;28;20043;-64
2022/07/16 00:15:10;;;;;;;3.17;1.13;;;;;;;;;;4973943;28;20058;-64
2022/07/16 00:17:37;;;;;;;5.25;1.20;;;;;;;;;;4972647;28;20074;-64
2022/07/16 00:20:04;;;;;;;12.23;1.60;;;;;;;;;;4973329;28;20894;-64
2022/07/16 00:22:31;;;;;;;3.53;1.20;;;;;;;;;;4972775;28;21119;-64
2022/07/16 00:24:57;;;;;;;3.45;1.30;;;;;;;;;;4974166;28;20403;-64
2022/07/16 00:27:24;;;;;;;5.03;1.23;;;;;;;;;;4972587;28;20066;-64
2022/07/16 00:29:51;;;;;;;4.43;1.20;;;;;;;;;;4971771;28;20046;-64
2022/07/16 00:32:17;;;;;;;4.55;1.10;;;;;;;;;;4972826;28;20038;-64
2022/07/16 00:34:44;;;;;;;4.72;1.08;;;;;;;;;;4971929;28;20047;-64
2022/07/16 00:37:11;;;;;;;8.73;1.50;;;;;;;;;;4972400;28;20043;-64
2022/07/16 00:39:37;;;;;;;5.13;1.20;;;;;;;;;;4972250;28;20054;-64
2022/07/16 00:42:04;;;;;;;3.90;1.30;;;;;;;;;;4972704;28;20069;-64
2022/07/16 00:44:31;;;;;;;3.50;1.08;;;;;;;;;;4972865;28;20054;-64
2022/07/16 00:46:57;;;;;;;6.65;1.50;;;;;;;;;;4974268;28;20047;-65
2022/07/16 00:49:24;;;;;;;4.85;1.63;;;;;;;;;;4972561;28;20119;-64
2022/07/16 00:51:52;;;;;;;7.82;2.30;;;;;;;;;;4973178;28;20053;-64
2022/07/16 00:54:19;;;;;;;3.78;1.40;;;;;;;;;;4973764;28;20122;-64
2022/07/16 00:56:46;;;;;;;5.75;1.20;;;;;;;;;;4991308;28;20065;-64
2022/07/16 00:59:13;;;;;;;5.43;1.13;;;;;;;;;;4995325;28;20039;-64
2022/07/16 01:01:40;;;;;;;7.63;1.20;;;;;;;;;;4991083;28;20046;-65
2022/07/16 01:04:09;;;;;;;6.82;1.30;;;;;;;;;;4992802;28;20403;-65
2022/07/16 01:06:37;;;;;;;4.70;1.10;;;;;;;;;;4979991;28;20085;-65
2022/07/16 01:09:03;;;;;;;5.65;1.15;;;;;;;;;;4973713;28;20450;-65
2022/07/16 01:11:32;;;;;;;4.65;0.93;;;;;;;;;;4970621;28;20046;-65
2022/07/16 01:13:59;;;;;;;4.30;1.17;;;;;;;;;;4973893;28;20078;-65
2022/07/16 01:16:26;;;;;;;7.43;1.08;;;;;;;;;;4970848;28;20078;-65
2022/07/16 01:18:53;;;;;;;5.85;1.30;;;;;;;;;;4974195;28;20599;-65
2022/07/16 01:21:19;;;;;;;6.45;1.20;;;;;;;;;;4972101;28;20062;-65
2022/07/16 01:23:49;;;;;;;5.55;1.15;;;;;;;;;;4971916;28;20507;-65
2022/07/16 01:26:16;;;;;;;4.15;1.10;;;;;;;;;;4974082;28;20042;-65
2022/07/16 01:28:43;;;;;;;4.30;1.15;;;;;;;;;;4972988;28;20439;-65
2022/07/16 01:31:09;;;;;;;4.47;1.30;;;;;;;;;;4973373;28;20564;-65
2022/07/16 01:33:37;;;;;;;4.88;1.13;;;;;;;;;;4975250;28;20046;-65
2022/07/16 01:36:06;;;;;;;7.60;1.20;;;;;;;;;;4972786;28;20074;-64
2022/07/16 01:38:33;;;;;;;5.47;1.02;;;;;;;;;;4973254;28;20046;-65
2022/07/16 01:40:59;;;;;;;5.47;1.17;;;;;;;;;;4971809;28;20092;-65
2022/07/16 01:43:27;;;;;;;10.10;1.38;;;;;;;;;;4971787;28;20042;-64
2022/07/16 01:45:55;;;;;;;11.15;1.42;;;;;;;;;;4971265;28;20043;-65
2022/07/16 01:48:22;;;;;;;4.50;1.90;;;;;;;;;;4970426;28;20074;-65
2022/07/16 01:50:49;;;;;;;7.57;1.55;;;;;;;;;;4971948;28;20041;-62
2022/07/16 01:53:16;;;;;;;6.88;1.15;;;;;;;;;;4973835;28;20034;-63
2022/07/16 01:55:42;;;;;;;5.40;1.10;;;;;;;;;;4974139;28;20044;-65
2022/07/16 01:58:10;;;;;;;12.02;1.33;;;;;;;;;;4972035;28;20043;-65
2022/07/16 02:00:38;;;;;;;5.72;1.23;;;;;;;;;;4971814;28;20049;-64
2022/07/16 02:03:04;;;;;;;4.15;1.25;;;;;;;;;;4973398;28;20043;-65
2022/07/16 02:05:31;;;;;;;6.30;1.38;;;;;;;;;;4975013;28;20034;-64
2022/07/16 02:07:58;;;;;;;6.00;1.27;;;;;;;;;;4973972;28;20518;-64
2022/07/16 02:10:25;;;;;;;9.45;1.20;;;;;;;;;;4972513;28;20105;-64
2022/07/16 02:12:52;;;;;;;7.85;1.40;;;;;;;;;;4973370;28;20058;-64
2022/07/16 02:15:19;;;;;;;4.35;1.10;;;;;;;;;;4972838;28;20039;-63
2022/07/16 02:17:46;;;;;;;6.30;0.93;;;;;;;;;;4973078;28;20127;-64
2022/07/16 02:20:12;;;;;;;12.00;1.20;;;;;;;;;;4976203;28;20042;-64
2022/07/16 02:22:39;;;;;;;5.63;1.30;;;;;;;;;;4971669;28;20137;-64
2022/07/16 02:25:07;;;;;;;5.95;1.13;;;;;;;;;;4973414;28;20065;-64
2022/07/16 02:27:34;;;;;;;8.70;1.10;;;;;;;;;;4972410;28;20070;-65
2022/07/16 02:30:00;;;;;;;7.05;1.30;;;;;;;;;;4971275;28;20049;-65
2022/07/16 02:32:27;;;;;;;6.63;1.10;;;;;;;;;;4972991;28;20141;-65
2022/07/16 02:34:54;;;;;;;4.68;0.95;;;;;;;;;;4974561;28;20121;-64
2022/07/16 02:37:21;;;;;;;6.75;2.25;;;;;;;;;;4970499;28;20049;-64
2022/07/16 02:39:48;;;;;;;6.22;1.73;;;;;;;;;;4972638;28;20046;-64
2022/07/16 02:42:14;;;;;;;6.60;1.40;;;;;;;;;;4972673;28;20045;-64
2022/07/16 02:44:41;;;;;;;5.75;1.45;;;;;;;;;;4971652;28;20076;-65
2022/07/16 02:47:07;;;;;;;3.22;1.00;;;;;;;;;;4969812;28;20145;-64
2022/07/16 02:49:34;;;;;;;7.40;1.10;;;;;;;;;;4971265;28;20118;-64
2022/07/16 02:52:01;;;;;;;7.10;0.90;;;;;;;;;;4974276;28;20070;-64
2022/07/16 02:54:27;;;;;;;5.22;0.85;;;;;;;;;;4972317;28;20070;-64
2022/07/16 02:56:54;;;;;;;5.72;1.05;;;;;;;;;;4973923;28;20039;-65
2022/07/16 02:59:21;;;;;;;5.40;1.02;;;;;;;;;;4971275;28;20085;-66
2022/07/16 03:01:47;;;;;;;6.35;1.30;;;;;;;;;;4970766;28;20072;-64
2022/07/16 03:04:14;;;;;;;7.90;1.10;;;;;;;;;;4970524;28;21743;-63
2022/07/16 03:06:40;;;;;;;5.28;1.10;;;;;;;;;;4968644;28;20038;-64
2022/07/16 03:09:07;;;;;;;5.97;1.00;;;;;;;;;;4970081;28;20034;-63
2022/07/16 03:11:34;;;;;;;3.22;1.00;;;;;;;;;;4970025;28;20121;-68
2022/07/16 03:14:00;;;;;;;6.40;1.08;;;;;;;;;;4972556;28;20152;-61
2022/07/16 03:16:27;;;;;;;8.75;1.35;;;;;;;;;;4971129;28;20119;-61
2022/07/16 03:18:53;;;;;;;7.72;1.30;;;;;;;;;;4973181;28;20132;-63
2022/07/16 03:21:20;;;;;;;8.25;1.40;;;;;;;;;;4972605;28;20149;-62
2022/07/16 03:23:47;;;;;;;5.28;1.30;;;;;;;;;;4970358;28;20050;-63
2022/07/16 03:26:13;;;;;;;56.15;4.57;;;;;;;;;;4972071;28;20931;-61
2022/07/16 03:28:40;;;;;;;16.50;2.33;;;;;;;;;;4969788;28;20070;-62
2022/07/16 03:31:07;;;;;;;17.83;2.58;;;;;;;;;;4972419;28;20043;-61
2022/07/16 03:33:33;;;;;;;15.13;2.00;;;;;;;;;;4970013;28;20044;-62
2022/07/16 03:36:00;;;;;;;9.45;2.22;;;;;;;;;;4972372;28;20059;-62
2022/07/16 03:41:12;;;;;;;7.93;2.05;;;;;;;;;;4971441;28;20490;-62
2022/07/16 03:43:39;;;;;;;7.93;2.05;;;;;;;;;;4974586;28;20061;-62
2022/07/16 03:46:05;;;;;;;8.77;1.88;;;;;;;;;;4976148;28;20046;-62
2022/07/16 03:48:32;;;;;;;7.05;1.67;;;;;;;;;;4972888;28;20439;-61
2022/07/16 03:50:59;;;;;;;10.38;1.75;;;;;;;;;;4973469;28;20054;-62
2022/07/16 03:53:25;;;;;;;5.10;1.50;;;;;;;;;;4974131;28;20440;-63
2022/07/16 03:55:52;;;;;;;6.47;1.50;;;;;;;;;;4975657;28;20136;-62
2022/07/16 03:58:19;;;;;;;6.28;1.40;;;;;;;;;;4974215;28;20046;-61
2022/07/16 04:00:45;;;;;;;3.65;1.38;;;;;;;;;;4973785;28;20407;-61
2022/07/16 04:03:12;;;;;;;4.85;1.42;;;;;;;;;;4974178;28;20062;-61
2022/07/16 04:05:39;;;;;;;3.95;1.20;;;;;;;;;;4973875;28;20046;-60
2022/07/16 04:08:05;;;;;;;7.82;1.60;;;;;;;;;;4973574;28;20045;-61
2022/07/16 04:10:32;;;;;;;5.00;1.70;;;;;;;;;;4972252;28;20045;-61
2022/07/16 04:12:59;;;;;;;6.70;1.50;;;;;;;;;;4974017;28;20134;-61
2022/07/16 04:15:25;;;;;;;32.83;3.15;;;;;;;;;;4971927;28;20088;-62
2022/07/16 04:17:52;;;;;;;17.83;2.15;;;;;;;;;;4973503;28;20046;-60
2022/07/16 04:20:19;;;;;;;15.70;2.47;;;;;;;;;;4972672;28;20038;-63
2022/07/16 04:22:46;;;;;;;13.88;2.85;;;;;;;;;;4972588;28;20039;-61
2022/07/16 04:25:15;;;;;;;19.15;2.28;;;;;;;;;;4974666;28;20679;-62
2022/07/16 04:27:42;;;;;;;9.48;2.00;;;;;;;;;;4975796;28;20049;-61
2022/07/16 04:30:09;;;;;;;8.90;2.10;;;;;;;;;;4978666;28;20042;-62
2022/07/16 04:32:40;;;;;;;11.45;2.10;;;;;;;;;;4982096;28;20041;-63
2022/07/16 04:35:07;;;;;;;9.57;2.10;;;;;;;;;;4974060;28;20756;-65
2022/07/16 04:37:34;;;;;;;14.88;2.13;;;;;;;;;;4972033;28;20189;-65
2022/07/16 04:40:02;;;;;;;6.25;1.73;;;;;;;;;;4973670;28;20095;-63
2022/07/16 04:42:29;;;;;;;9.65;1.70;;;;;;;;;;4993976;28;20504;-64
2022/07/16 04:44:55;;;;;;;7.75;1.90;;;;;;;;;;4998724;28;20058;-60
2022/07/16 04:47:25;;;;;;;9.27;1.90;;;;;;;;;;4993176;28;20485;-65
2022/07/16 04:49:52;;;;;;;9.20;2.05;;;;;;;;;;4981243;28;20710;-66
2022/07/16 04:52:18;;;;;;;11.63;2.42;;;;;;;;;;4973765;28;20630;-64
2022/07/16 04:54:45;;;;;;;8.35;2.22;;;;;;;;;;4972943;28;20046;-63
2022/07/16 04:57:12;;;;;;;5.82;1.85;;;;;;;;;;4974349;28;20101;-65
2022/07/16 04:59:38;;;;;;;5.82;2.20;;;;;;;;;;4973643;28;20560;-64
2022/07/16 05:04:50;;;;;;;5.18;1.77;;;;;;;;;;4974092;28;20100;-64
2022/07/16 05:07:17;;;;;;;6.75;1.90;;;;;;;;;;4975028;28;20038;-64
2022/07/16 05:09:49;;;;;;;4.93;1.73;;;;;;;;;;4973294;28;20090;-64
2022/07/16 05:12:15;;;;;;;9.18;1.83;;;;;;;;;;4973351;28;20027;-64
2022/07/16 05:14:42;;;;;;;8.55;1.60;;;;;;;;;;4973003;28;20508;-65
2022/07/16 05:17:09;;;;;;;6.13;1.55;;;;;;;;;;4973471;28;20526;-64
2022/07/16 05:19:36;;;;;;;4.05;1.52;;;;;;;;;;4972277;28;20046;-65
2022/07/16 05:22:04;;;;;;;4.65;1.30;;;;;;;;;;4989405;28;20047;-65
2022/07/16 05:24:30;;;;;;;4.10;1.20;;;;;;;;;;4971225;28;20051;-64
2022/07/16 05:26:57;;;;;;;4.55;1.55;;;;;;;;;;4973926;28;20042;-63
2022/07/16 05:29:23;;;;;;;4.28;1.13;;;;;;;;;;4972772;28;20026;-64
2022/07/16 05:31:50;;;;;;;3.70;1.05;;;;;;;;;;4972465;28;20564;-64
2022/07/16 05:34:17;;;;;;;3.55;0.90;;;;;;;;;;4971726;28;20428;-65
2022/07/16 05:36:43;;;;;;;3.65;1.15;;;;;;;;;;4973629;28;20559;-66
2022/07/16 05:39:10;;;;;;;3.88;1.13;;;;;;;;;;4971647;28;20058;-64
2022/07/16 05:41:37;;;;;;;3.08;1.15;;;;;;;;;;4970766;28;20074;-64
2022/07/16 05:44:08;;;;;;;2.72;0.95;;;;;;;;;;4971465;28;20058;-65
2022/07/16 05:46:35;;;;;;;3.10;1.10;;;;;;;;;;4971558;28;20038;-64
2022/07/16 05:49:02;;;;;;;3.10;1.10;;;;;;;;;;4973014;28;20141;-65
2022/07/16 05:51:29;;;;;;;4.47;1.00;;;;;;;;;;4973341;28;20129;-65
2022/07/16 05:53:55;;;;;;;3.97;1.20;;;;;;;;;;4973313;28;20038;-64
2022/07/16 05:56:22;;;;;;;3.30;1.10;;;;;;;;;;4970910;28;20773;-63
2022/07/16 05:58:49;;;;;;;3.60;1.05;;;;;;;;;;4970470;28;20045;-64
2022/07/16 06:01:16;;;;;;;4.22;0.93;;;;;;;;;;4986765;28;20097;-64
2022/07/16 06:03:42;;;;;;;3.90;0.93;;;;;;;;;;4971742;28;20074;-64
2022/07/16 06:06:09;;;;;;;3.45;1.05;;;;;;;;;;4971683;28;20038;-63
2022/07/16 06:08:36;;;;;;;5.07;1.00;;;;;;;;;;4971708;28;20602;-64
2022/07/16 06:11:02;;;;;;;6.40;1.35;;;;;;;;;;4973690;28;20118;-64
2022/07/16 06:13:29;;;;;;;4.18;1.25;;;;;;;;;;4981026;28;20041;-64
2022/07/16 06:15:56;;;;;;;3.20;1.35;;;;;;;;;;4973385;28;20495;-65
2022/07/16 06:18:22;;;;;;;6.38;1.42;;;;;;;;;;4971767;28;20046;-64
2022/07/16 06:20:49;;;;;;;3.65;1.40;;;;;;;;;;4972771;28;20043;-64
2022/07/16 06:23:16;;;;;;;7.00;2.15;;;;;;;;;;4972820;28;20074;-65
2022/07/16 06:25:42;;;;;;;6.35;3.00;;;;;;;;;;4971265;28;20042;-63
2022/07/16 06:28:09;;;;;;;5.20;2.30;;;;;;;;;;4970022;28;20064;-65
2022/07/16 06:30:36;;;;;;;6.38;2.22;;;;;;;;;;4970056;28;20050;-63
2022/07/16 06:33:02;;;;;;;6.10;2.28;;;;;;;;;;4972621;28;20412;-64
2022/07/16 06:35:29;;;;;;;8.32;2.30;;;;;;;;;;4970988;28;20042;-64
2022/07/16 06:37:56;;;;;;;5.00;1.83;;;;;;;;;;4970054;28;20042;-65
2022/07/16 06:40:22;;;;;;;5.45;2.00;;;;;;;;;;4968585;28;20045;-65
2022/07/16 06:42:49;;;;;;;3.72;1.60;;;;;;;;;;4985606;28;20043;-65
2022/07/16 06:45:16;;;;;;;4.93;1.75;;;;;;;;;;4969988;28;20057;-65
2022/07/16 06:47:42;;;;;;;6.03;1.50;;;;;;;;;;4970708;28;20038;-65
2022/07/16 06:50:10;;;;;;;7.95;1.20;;;;;;;;;;4970229;28;20105;-65
2022/07/16 06:52:37;;;;;;;6.28;1.60;;;;;;;;;;4971355;28;21637;-64
2022/07/16 06:55:04;;;;;;;4.63;1.38;;;;;;;;;;4971411;28;20484;-65
2022/07/16 06:57:31;;;;;;;5.95;1.40;;;;;;;;;;4969510;28;20435;-65
2022/07/16 06:59:57;;;;;;;3.78;1.20;;;;;;;;;;4970174;28;20677;-64
2022/07/16 07:02:24;;;;;;;7.70;1.02;;;;;;;;;;4971096;28;20041;-65
2022/07/16 07:04:51;;;;;;;4.45;1.10;;;;;;;;;;4971229;28;20046;-64
2022/07/16 07:07:17;;;;;;;3.42;1.30;;;;;;;;;;4970929;28;20035;-64
2022/07/16 07:09:44;;;;;;;4.35;1.10;;;;;;;;;;4969065;28;20049;-64
2022/07/16 07:12:11;;;;;;;3.03;1.23;;;;;;;;;;4970674;28;20132;-64
2022/07/16 07:14:37;;;;;;;6.40;1.20;;;;;;;;;;4969802;28;20523;-65
2022/07/16 07:17:04;;;;;;;3.70;1.25;;;;;;;;;;4976898;28;20038;-65
2022/07/16 07:19:31;;;;;;;6.18;1.52;;;;;;;;;;4972411;28;20043;-65
2022/07/16 07:22:01;;;;;;;5.00;1.42;;;;;;;;;;4975849;28;20039;-65
2022/07/16 07:24:28;;;;;;;3.95;1.40;;;;;;;;;;4975206;28;20046;-65
2022/07/16 07:26:55;;;;;;;5.72;1.38;;;;;;;;;;4976576;28;20507;-65
2022/07/16 07:29:22;;;;;;;6.07;1.80;;;;;;;;;;4974851;28;20042;-67
2022/07/16 07:31:52;;;;;;;5.40;1.70;;;;;;;;;;4974595;28;20548;-65
2022/07/16 07:34:18;;;;;;;6.05;1.38;;;;;;;;;;4975660;28;20050;-65
2022/07/16 07:36:45;;;;;;;6.97;1.60;;;;;;;;;;4974621;28;20680;-65
2022/07/16 07:39:12;;;;;;;9.18;1.85;;;;;;;;;;4974312;28;20081;-65
2022/07/16 07:41:38;;;;;;;11.45;2.00;;;;;;;;;;4973974;28;20062;-65
2022/07/16 07:44:05;;;;;;;5.32;1.60;;;;;;;;;;4975330;28;20097;-65
2022/07/16 07:46:32;;;;;;;7.15;1.55;;;;;;;;;;4975390;28;20037;-64
2022/07/16 07:48:58;;;;;;;4.95;1.88;;;;;;;;;;4975482;28;20043;-65
2022/07/16 07:51:25;;;;;;;5.13;1.75;;;;;;;;;;4973324;28;21793;-65
2022/07/16 07:53:52;;;;;;;4.90;1.65;;;;;;;;;;4998741;28;20041;-65
2022/07/16 07:56:18;;;;;;;5.80;1.85;;;;;;;;;;4978749;28;20034;-64
2022/07/16 07:58:45;;;;;;;6.25;2.10;;;;;;;;;;4972756;28;20656;-65
2022/07/16 08:01:12;;;;;;;9.13;2.88;;;;;;;;;;4970901;28;20111;-65
2022/07/16 08:03:38;;;;;;;6.68;2.90;;;;;;;;;;4993306;28;20347;-65
2022/07/16 08:06:05;;;;;;;6.03;2.30;;;;;;;;;;4987683;28;20054;-65
2022/07/16 08:08:32;;;;;;;7.45;2.30;;;;;;;;;;4987347;28;20095;-65
2022/07/16 08:11:10;;;;;;;5.97;1.85;;;;;;;;;;4990275;28;21449;-66
2022/07/16 08:13:38;;;;;;;6.28;1.77;;;;;;;;;;4971881;28;20042;-66
2022/07/16 08:16:05;;;;;;;5.20;1.80;;;;;;;;;;4966941;28;20043;-66
2022/07/16 08:18:32;;;;;;;4.20;1.60;;;;;;;;;;4954506;28;20031;-66
2022/07/16 08:20:59;;;;;;;5.75;1.73;;;;;;;;;;4954264;28;21344;-65
2022/07/16 08:26:10;;;;;;;5.65;1.70;;;;;;;;;;4954658;28;20697;-66
2022/07/16 08:28:40;;;;;;;4.88;1.42;;;;;;;;;;4953477;28;20035;-65
2022/07/16 08:31:07;;;;;;;6.60;1.63;;;;;;;;;;4956635;28;20043;-66
2022/07/16 08:33:34;;;;;;;9.15;1.58;;;;;;;;;;4953012;28;20143;-66
2022/07/16 08:36:01;;;;;;;6.43;1.63;;;;;;;;;;4954762;28;20616;-66
2022/07/16 08:38:33;;;;;;;4.75;1.73;;;;;;;;;;4954959;28;20160;-65
2022/07/16 08:41:02;;;;;;;4.53;1.60;;;;;;;;;;4956089;28;20483;-65
2022/07/16 08:43:30;;;;;;;6.40;1.60;;;;;;;;;;4955327;28;20483;-65
2022/07/16 08:45:57;;;;;;;7.38;1.65;;;;;;;;;;4957296;28;20377;-65
2022/07/16 08:48:24;;;;;;;4.80;1.45;;;;;;;;;;4952675;28;20031;-65
2022/07/16 08:50:53;;;;;;;5.30;1.48;;;;;;;;;;4952457;28;20105;-61
2022/07/16 08:53:23;;;;;;;4.53;1.60;;;;;;;;;;4952587;28;20036;-66
2022/07/16 08:55:55;;;;;;;8.25;1.45;;;;;;;;;;4953823;28;20047;-64
2022/07/16 08:58:21;;;;;;;3.50;1.30;;;;;;;;;;4952154;28;20051;-64
2022/07/16 09:00:48;;;;;;;5.85;1.10;;;;;;;;;;4954221;28;20039;-65
2022/07/16 09:03:15;;;;;;;5.82;1.30;;;;;;;;;;4953975;28;20054;-65
2022/07/16 09:05:42;;;;;;;4.22;1.33;;;;;;;;;;4955013;28;20087;-65
2022/07/16 09:08:09;;;;;;;3.45;1.20;;;;;;;;;;4953365;28;20078;-65
2022/07/16 09:10:37;;;;;;;5.07;1.30;;;;;;;;;;4953012;28;20062;-65
2022/07/16 09:13:04;;;;;;;3.38;1.20;;;;;;;;;;4953743;28;20411;-65
2022/07/16 09:15:31;;;;;;;3.92;1.40;;;;;;;;;;4953954;28;20043;-64
2022/07/16 09:18:10;;;;;;;3.45;1.27;;;;;;;;;;4955753;28;20126;-65
2022/07/16 09:20:38;;;;;;;4.93;1.50;;;;;;;;;;4952899;28;20043;-65
2022/07/16 09:23:04;;;;;;;3.15;1.00;;;;;;;;;;4952829;28;20527;-65
2022/07/16 09:25:31;;;;;;;3.63;1.10;;;;;;;;;;4954013;28;20070;-65
2022/07/16 09:28:01;;;;;;;6.78;1.60;;;;;;;;;;4952784;28;20051;-65
2022/07/16 09:30:28;;;;;;;8.27;1.50;;;;;;;;;;4951952;28;20098;-65
2022/07/16 09:32:55;;;;;;;7.47;1.60;;;;;;;;;;4955126;28;20035;-66
2022/07/16 09:35:22;;;;;;;4.75;1.58;;;;;;;;;;4952218;28;20054;-64
2022/07/16 09:37:52;;;;;;;7.70;1.60;;;;;;;;;;4953642;28;20043;-64
2022/07/16 09:40:35;;;;;;;7.88;1.50;;;;;;;;;;4952635;28;20051;-64
2022/07/16 09:43:03;;;;;;;4.47;1.27;;;;;;;;;;4952670;28;20051;-64
2022/07/16 09:45:30;;;;;;;5.30;1.27;;;;;;;;;;4952484;28;20114;-64
2022/07/16 09:47:57;;;;;;;3.80;1.38;;;;;;;;;;4952832;28;21693;-64
2022/07/16 09:50:23;;;;;;;3.20;1.27;;;;;;;;;;4951255;28;20114;-64
2022/07/16 09:52:50;;;;;;;4.05;1.65;;;;;;;;;;4953692;28;20035;-64
2022/07/16 09:55:17;;;;;;;3.25;1.27;;;;;;;;;;4953700;28;20109;-64
2022/07/16 09:57:44;;;;;;;5.05;1.58;;;;;;;;;;4952986;28;20503;-64
2022/07/16 10:00:11;;;;;;;3.50;1.23;;;;;;;;;;4951955;28;20046;-63
2022/07/16 10:02:37;;;;;;;3.53;1.33;;;;;;;;;;4951695;28;20826;-63
2022/07/16 10:05:04;;;;;;;5.30;1.55;;;;;;;;;;4952333;28;20058;-63
2022/07/16 10:07:31;;;;;;;4.22;1.38;;;;;;;;;;4953280;28;20043;-63
2022/07/16 10:09:58;;;;;;;3.10;1.30;;;;;;;;;;4952410;28;20043;-63
2022/07/16 10:12:26;;;;;;;4.55;1.25;;;;;;;;;;4953588;28;20609;-63
2022/07/16 10:14:54;;;;;;;5.53;1.50;;;;;;;;;;4953354;28;20400;-62
2022/07/16 10:17:23;;;;;;;3.60;1.38;;;;;;;;;;4953107;28;20130;-63
2022/07/16 10:20:00;;;;;;;5.47;1.58;;;;;;;;;;4952000;28;20117;-62
2022/07/16 10:22:52;;;;;;;15.88;2.25;;;;;;;;;;4950863;28;20050;-63
2022/07/16 10:25:23;;;;;;;3.38;1.20;;;;;;;;;;4952551;28;20108;-63
2022/07/16 10:27:50;;;;;;;3.78;1.48;;;;;;;;;;4959547;28;20042;-61
2022/07/16 10:30:23;;;;;;;5.25;1.30;;;;;;;;;;4951994;28;20045;-62
2022/07/16 10:33:02;;;;;;;6.60;1.30;;;;;;;;;;4970865;28;20034;-62
2022/07/16 10:35:39;;;;;;;4.50;1.35;;;;;;;;;;4970632;28;20180;-63
2022/07/16 10:38:11;;;;;;;4.28;1.20;;;;;;;;;;4971362;28;20514;-63
2022/07/16 10:40:38;;;;;;;3.65;1.33;;;;;;;;;;4971466;28;20045;-63
2022/07/16 10:43:11;;;;;;;4.03;1.35;;;;;;;;;;4972288;28;20563;-61
2022/07/16 10:45:57;;;;;;;5.35;1.50;;;;;;;;;;4969944;28;20043;-62
2022/07/16 10:48:25;;;;;;;4.10;1.42;;;;;;;;;;4970583;28;20045;-61
2022/07/16 10:51:10;;;;;;;4.40;1.73;;;;;;;;;;4969519;28;20034;-62
2022/07/16 10:53:56;;;;;;;4.35;1.63;;;;;;;;;;4971851;28;21765;-62
2022/07/16 10:56:45;;;;;;;4.68;1.70;;;;;;;;;;4971403;28;20051;-62
2022/07/16 10:59:14;;;;;;;4.43;1.60;;;;;;;;;;4971106;28;20039;-63
2022/07/16 11:01:42;;;;;;;4.97;1.52;;;;;;;;;;4971481;28;20118;-62
2022/07/16 11:04:09;;;;;;;4.82;1.58;;;;;;;;;;4971611;28;20065;-62
2022/07/16 11:06:36;;;;;;;5.07;1.80;;;;;;;;;;4968977;28;20046;-62
2022/07/16 11:09:05;;;;;;;5.80;1.80;;;;;;;;;;4972856;28;20037;-62
2022/07/16 11:11:32;;;;;;;3.95;1.52;;;;;;;;;;4969775;28;20076;-63
2022/07/16 11:13:59;;;;;;;4.00;1.30;;;;;;;;;;4971642;28;20042;-62
2022/07/16 11:16:26;;;;;;;4.05;1.38;;;;;;;;;;4970966;28;20042;-62
2022/07/16 11:18:53;;;;;;;4.00;1.30;;;;;;;;;;4970720;28;20045;-61
2022/07/16 11:21:20;;;;;;;8.50;1.55;;;;;;;;;;4972541;28;20035;-62
2022/07/16 11:23:48;;;;;;;4.50;1.45;;;;;;;;;;4960000;28;20603;-62
2022/07/16 11:26:14;;;;;;;3.60;1.30;;;;;;;;;;4954025;28;20053;-62
2022/07/16 11:28:51;;;;;;;3.63;1.40;;;;;;;;;;4952328;28;20041;-63
2022/07/16 11:31:23;;;;;;;5.93;1.67;;;;;;;;;;4952556;28;20046;-61
2022/07/16 11:33:50;;;;;;;5.95;1.80;;;;;;;;;;4955790;28;20084;-63
2022/07/16 11:36:17;;;;;;;5.30;1.45;;;;;;;;;;4953968;28;20045;-62
2022/07/16 11:38:44;;;;;;;8.10;1.73;;;;;;;;;;4970715;28;20042;-63
2022/07/16 11:41:11;;;;;;;8.27;1.52;;;;;;;;;;4970934;28;20504;-63
2022/07/16 11:43:38;;;;;;;5.07;1.55;;;;;;;;;;4969841;28;20117;-63
2022/07/16 11:46:04;;;;;;;6.53;1.70;;;;;;;;;;4963553;28;20502;-63
2022/07/16 11:48:36;;;;;;;5.82;1.52;;;;;;;;;;4952778;28;20059;-63
2022/07/16 11:51:11;;;;;;;4.63;1.35;;;;;;;;;;4950849;28;20110;-63
2022/07/16 11:53:38;;;;;;;9.30;1.80;;;;;;;;;;4951068;28;20047;-63
2022/07/16 11:56:08;;;;;;;4.03;1.60;;;;;;;;;;4950515;28;20058;-63
2022/07/16 11:58:35;;;;;;;4.15;1.70;;;;;;;;;;4950993;28;20046;-64
2022/07/16 12:01:02;;;;;;;6.35;1.63;;;;;;;;;;4954097;28;20067;-64
2022/07/16 12:03:29;;;;;;;3.42;1.45;;;;;;;;;;4980618;28;20055;-64
2022/07/16 12:06:05;;;;;;;5.70;1.58;;;;;;;;;;4956198;28;20956;-64
2022/07/16 12:08:33;;;;;;;3.92;1.35;;;;;;;;;;4954191;28;20989;-64
2022/07/16 12:11:01;;;;;;;5.65;1.50;;;;;;;;;;4955208;28;20042;-64
2022/07/16 12:13:28;;;;;;;4.80;1.40;;;;;;;;;;4954416;28;20038;-64
2022/07/16 12:15:59;;;;;;;4.78;1.60;;;;;;;;;;4977195;28;20047;-64
2022/07/16 12:18:26;;;;;;;5.22;1.60;;;;;;;;;;4957422;28;20046;-64
2022/07/16 12:20:53;;;;;;;9.82;1.80;;;;;;;;;;4955223;28;20039;-64
2022/07/16 12:23:39;;;;;;;7.90;1.67;;;;;;;;;;4956022;28;20031;-63
2022/07/16 12:26:07;;;;;;;5.72;1.50;;;;;;;;;;4955949;28;20055;-62
2022/07/16 12:28:34;;;;;;;4.75;1.40;;;;;;;;;;4982199;28;20162;-63
2022/07/16 12:31:11;;;;;;;5.38;1.70;;;;;;;;;;4958056;28;20039;-63
2022/07/16 12:33:39;;;;;;;8.07;1.95;;;;;;;;;;4953740;28;20050;-63
2022/07/16 12:36:12;;;;;;;10.38;2.22;;;;;;;;;;4953543;28;20098;-63
2022/07/16 12:38:39;;;;;;;9.45;1.95;;;;;;;;;;4953173;28;20061;-63
2022/07/16 12:41:16;;;;;;;5.13;1.75;;;;;;;;;;4954276;28;20051;-63
2022/07/16 12:43:44;;;;;;;5.35;1.67;;;;;;;;;;4953182;28;20047;-63
2022/07/16 12:46:11;;;;;;;5.38;1.50;;;;;;;;;;4955281;28;20050;-63
2022/07/16 12:48:46;;;;;;;4.25;1.35;;;;;;;;;;4954187;28;20045;-63
2022/07/16 12:51:14;;;;;;;4.85;1.30;;;;;;;;;;4955968;28;20575;-63
2022/07/16 12:53:41;;;;;;;5.78;1.52;;;;;;;;;;4954448;28;20035;-63
2022/07/16 12:58:53;;;;;;;5.00;1.40;;;;;;;;;;4959027;28;20509;-64
2022/07/16 13:01:21;;;;;;;5.95;1.23;;;;;;;;;;4957588;28;20059;-63
2022/07/16 13:03:48;;;;;;;3.13;1.25;;;;;;;;;;4953896;28;20055;-63
2022/07/16 13:06:15;;;;;;;5.25;1.48;;;;;;;;;;4953912;28;20082;-64
2022/07/16 13:08:41;;;;;;;3.67;1.35;;;;;;;;;;4952322;28;20045;-62
2022/07/16 13:11:09;;;;;;;3.33;1.17;;;;;;;;;;4954016;28;20039;-66
2022/07/16 13:13:36;;;;;;;9.65;1.83;;;;;;;;;;4952852;28;20441;-64
2022/07/16 13:16:03;;;;;;;3.22;1.20;;;;;;;;;;4953577;28;20074;-63
2022/07/16 13:18:30;;;;;;;3.97;1.40;;;;;;;;;;4952590;28;20043;-62
2022/07/16 13:20:58;;;;;;;6.53;1.10;;;;;;;;;;4953943;28;20542;-63
2022/07/16 13:23:25;;;;;;;3.38;1.10;;;;;;;;;;4955200;28;20035;-64
2022/07/16 13:25:52;;;;;;;3.45;1.10;;;;;;;;;;4954394;28;20137;-62
2022/07/16 13:28:18;;;;;;;6.75;1.15;;;;;;;;;;4954928;28;20587;-62
2022/07/16 13:30:46;;;;;;;3.70;1.42;;;;;;;;;;4953338;28;20051;-61
2022/07/16 13:33:13;;;;;;;3.60;1.13;;;;;;;;;;4953274;28;20158;-62
2022/07/16 13:35:40;;;;;;;6.80;1.52;;;;;;;;;;4951601;28;20502;-63
2022/07/16 13:38:06;;;;;;;5.18;1.67;;;;;;;;;;4953821;28;20126;-64
2022/07/16 13:40:33;;;;;;;4.60;1.15;;;;;;;;;;4954038;28;20069;-66
2022/07/16 13:43:00;;;;;;;8.20;1.40;;;;;;;;;;4953027;28;20051;-65
2022/07/16 13:45:27;;;;;;;4.47;1.70;;;;;;;;;;4953334;28;21753;-63
2022/07/16 13:47:53;;;;;;;8.63;2.00;;;;;;;;;;4953156;28;20131;-63
2022/07/16 13:50:20;;;;;;;7.13;1.45;;;;;;;;;;4953065;28;20043;-63
2022/07/16 13:52:47;;;;;;;7.72;1.25;;;;;;;;;;4951150;28;20043;-63
2022/07/16 13:55:14;;;;;;;8.98;1.42;;;;;;;;;;4952088;28;20389;-62
2022/07/16 14:00:28;;;;;;;5.85;1.55;;;;;;;;;;4951940;28;20046;-62
2022/07/16 14:02:55;;;;;;;5.25;1.20;;;;;;;;;;4952073;28;20066;-66
2022/07/16 14:05:22;;;;;;;7.35;1.73;;;;;;;;;;4952614;28;20051;-66
2022/07/16 14:07:49;;;;;;;7.85;1.67;;;;;;;;;;4953205;28;20045;-65
2022/07/16 14:10:16;;;;;;;6.88;1.55;;;;;;;;;;4979563;28;20051;-60
2022/07/16 14:12:44;;;;;;;5.57;1.75;;;;;;;;;;4950671;28;20133;-65
2022/07/16 14:15:11;;;;;;;9.30;2.03;;;;;;;;;;4949165;28;20837;-65
2022/07/16 14:17:38;;;;;;;6.57;1.58;;;;;;;;;;4978763;28;20125;-63
2022/07/16 14:20:06;;;;;;;9.70;1.80;;;;;;;;;;4951399;28;20164;-63
2022/07/16 14:22:33;;;;;;;6.32;1.77;;;;;;;;;;4950911;28;20043;-65
2022/07/16 14:24:59;;;;;;;6.30;1.90;;;;;;;;;;4949484;28;20449;-65
2022/07/16 14:27:26;;;;;;;12.45;2.65;;;;;;;;;;4951835;28;20075;-65
2022/07/16 14:29:53;;;;;;;10.05;2.28;;;;;;;;;;4950395;28;20038;-65
2022/07/16 14:32:20;;;;;;;10.48;2.30;;;;;;;;;;4951036;28;20460;-65
2022/07/16 14:34:47;;;;;;;13.13;2.78;;;;;;;;;;4949408;28;20221;-64
2022/07/16 14:37:14;;;;;;;7.63;2.15;;;;;;;;;;4949893;28;20044;-64
2022/07/16 14:39:41;;;;;;;9.32;2.35;;;;;;;;;;4950840;28;20043;-64
2022/07/16 14:42:07;;;;;;;5.20;2.08;;;;;;;;;;4958686;28;20102;-65
2022/07/16 14:44:34;;;;;;;5.95;1.95;;;;;;;;;;4965136;28;20104;-65
2022/07/16 14:47:04;;;;;;;6.47;1.90;;;;;;;;;;4951560;28;20106;-65
2022/07/16 14:49:31;;;;;;;9.10;2.15;;;;;;;;;;4952958;28;20130;-65
2022/07/16 14:51:57;;;;;;;7.35;1.83;;;;;;;;;;4969770;28;20062;-65
2022/07/16 14:54:24;;;;;;;8.85;2.30;;;;;;;;;;4968343;28;20043;-65
2022/07/16 14:56:51;;;;;;;6.03;1.95;;;;;;;;;;4949512;28;20035;-65
2022/07/16 14:59:17;;;;;;;5.38;1.95;;;;;;;;;;4950161;28;20050;-65
2022/07/16 15:01:44;;;;;;;7.35;2.38;;;;;;;;;;4949779;28;20131;-65